createdAt,value
2023-03-10T00:01:21.946Z,20.75
2023-03-10T00:03:50.973Z,20.95
2023-03-10T00:06:22.325Z,21.75
2023-03-10T00:08:50.820Z,21.17
2023-03-10T00:11:20.941Z,23.02
2023-03-10T00:13:49.477Z,21.80
2023-03-10T00:16:19.914Z,22.92
2023-03-10T00:18:48.790Z,21.55
2023-03-10T00:21:19.470Z,21.58
2023-03-10T00:23:48.185Z,23.75
2023-03-10T00:26:17.643Z,21.73
2023-03-10T00:28:47.980Z,21.13
2023-03-10T00:31:18.428Z,21.08
2023-03-10T00:33:47.420Z,21.58
2023-03-10T00:36:18.001Z,22.60
2023-03-10T00:38:47.380Z,20.73
2023-03-10T00:41:17.097Z,21.45
2023-03-10T00:43:47.368Z,22.58
2023-03-10T00:46:16.065Z,22.05
2023-03-10T00:48:45.004Z,23.73
2023-03-10T00:51:13.830Z,22.75
2023-03-10T00:53:42.541Z,21.95
2023-03-10T00:56:14.456Z,23.45
2023-03-10T00:58:43.658Z,23.30
2023-03-10T01:01:15.974Z,22.15
2023-03-10T01:03:45.086Z,21.10
2023-03-10T01:06:14.609Z,21.90
2023-03-10T01:08:43.167Z,22.40
2023-03-10T01:11:14.559Z,21.75
2023-03-10T01:13:44.225Z,22.58
2023-03-10T01:16:14.593Z,22.33
2023-03-10T01:18:43.786Z,22.15
2023-03-10T01:21:17.889Z,21.88
2023-03-10T01:23:46.691Z,21.63
2023-03-10T01:26:18.766Z,21.30
2023-03-10T01:28:48.698Z,21.38
2023-03-10T01:31:19.310Z,22.08
2023-03-10T01:33:48.161Z,20.88
2023-03-10T01:36:19.250Z,20.98
2023-03-10T01:38:49.286Z,23.13
2023-03-10T01:41:18.547Z,20.50
2023-03-10T01:43:48.854Z,21.05
2023-03-10T01:46:41.103Z,22.00
2023-03-10T01:49:20.095Z,21.23
2023-03-10T01:51:51.897Z,21.67
2023-03-10T01:54:23.651Z,22.02
2023-03-10T01:56:55.207Z,21.05
2023-03-10T01:59:24.910Z,22.00
2023-03-10T02:01:56.080Z,21.40
2023-03-10T02:04:33.172Z,21.30
2023-03-10T02:07:06.004Z,21.83
2023-03-10T02:09:38.570Z,21.55
2023-03-10T02:12:08.445Z,22.65
2023-03-10T02:14:37.332Z,21.27
2023-03-10T02:17:09.764Z,21.55
2023-03-10T02:19:59.244Z,22.73
2023-03-10T02:22:28.362Z,22.40
2023-03-10T02:25:04.259Z,22.15
2023-03-10T02:27:36.069Z,22.00
2023-03-10T02:30:09.038Z,23.17
2023-03-10T02:32:40.809Z,21.50
2023-03-10T02:35:10.050Z,21.92
2023-03-10T02:37:45.748Z,20.40
2023-03-10T02:40:33.842Z,21.42
2023-03-10T02:43:17.677Z,21.95
2023-03-10T02:45:48.552Z,20.92
2023-03-10T02:48:25.959Z,20.08
2023-03-10T02:50:56.939Z,20.65
2023-03-10T02:53:27.338Z,21.70
2023-03-10T02:55:57.100Z,22.55
2023-03-10T02:58:31.765Z,20.73
2023-03-10T03:01:01.942Z,22.10
2023-03-10T03:03:30.645Z,21.00
2023-03-10T03:05:59.113Z,21.83
2023-03-10T03:08:28.050Z,21.20
2023-03-10T03:10:57.994Z,20.52
2023-03-10T03:13:27.948Z,20.92
2023-03-10T03:15:56.631Z,21.60
2023-03-10T03:18:25.153Z,20.38
2023-03-10T03:20:53.687Z,21.05
2023-03-10T03:23:22.278Z,21.48
2023-03-10T03:25:51.912Z,21.92
2023-03-10T03:28:23.011Z,20.60
2023-03-10T03:30:55.046Z,20.92
2023-03-10T03:33:23.642Z,21.05
2023-03-10T03:35:52.362Z,21.27
2023-03-10T03:38:21.096Z,20.73
2023-03-10T03:40:50.011Z,20.40
2023-03-10T03:43:21.943Z,20.80
2023-03-10T03:45:50.516Z,21.40
2023-03-10T03:48:22.409Z,21.02
2023-03-10T03:50:52.258Z,20.75
2023-03-10T03:53:26.893Z,20.48
2023-03-10T03:55:55.777Z,21.10
2023-03-10T03:58:27.120Z,21.15
2023-03-10T04:00:58.264Z,21.38
2023-03-10T04:03:30.492Z,20.15
2023-03-10T04:05:59.263Z,21.27
2023-03-10T04:08:27.836Z,19.83
2023-03-10T04:10:56.993Z,21.20
2023-03-10T04:13:28.390Z,20.58
2023-03-10T04:15:58.072Z,20.60
2023-03-10T04:18:30.649Z,20.55
2023-03-10T04:20:59.217Z,21.65
2023-03-10T04:23:28.181Z,21.10
2023-03-10T04:25:57.472Z,20.00
2023-03-10T04:28:27.120Z,20.42
2023-03-10T04:30:56.791Z,19.77
2023-03-10T04:33:29.909Z,18.95
2023-03-10T04:35:58.482Z,20.35
2023-03-10T04:38:27.336Z,20.65
2023-03-10T04:40:56.048Z,20.55
2023-03-10T04:43:27.987Z,20.70
2023-03-10T04:45:57.330Z,20.95
2023-03-10T04:48:26.054Z,20.63
2023-03-10T04:51:00.291Z,20.42
2023-03-10T04:53:32.549Z,19.52
2023-03-10T04:56:02.646Z,19.83
2023-03-10T04:58:32.883Z,20.48
2023-03-10T05:01:03.495Z,19.95
2023-03-10T05:03:36.827Z,19.60
2023-03-10T05:06:15.412Z,19.67
2023-03-10T05:08:46.520Z,19.40
2023-03-10T05:11:16.002Z,22.13
2023-03-10T05:13:44.466Z,19.17
2023-03-10T05:16:15.289Z,19.50
2023-03-10T05:18:43.994Z,20.95
2023-03-10T05:21:14.461Z,19.88
2023-03-10T05:23:44.448Z,19.65
2023-03-10T05:26:15.207Z,19.63
2023-03-10T05:28:44.044Z,20.20
2023-03-10T05:31:16.121Z,18.70
2023-03-10T05:33:46.903Z,19.23
2023-03-10T05:36:17.437Z,20.52
2023-03-10T05:38:47.463Z,19.80
2023-03-10T05:41:19.156Z,19.35
2023-03-10T05:43:51.149Z,19.17
2023-03-10T05:46:20.712Z,18.90
2023-03-10T05:48:54.794Z,19.08
2023-03-10T05:51:25.322Z,19.10
2023-03-10T05:53:53.732Z,18.42
2023-03-10T05:56:27.039Z,18.40
2023-03-10T05:58:59.933Z,18.75
2023-03-10T06:01:33.880Z,19.77
2023-03-10T06:04:02.410Z,18.15
2023-03-10T06:06:32.196Z,19.00
2023-03-10T06:09:00.683Z,18.48
2023-03-10T06:11:29.264Z,19.77
2023-03-10T06:13:57.725Z,20.58
2023-03-10T06:16:26.590Z,20.08
2023-03-10T06:18:55.894Z,18.63
2023-03-10T06:21:25.188Z,17.17
2023-03-10T06:23:54.980Z,17.52
2023-03-10T06:26:24.308Z,18.95
2023-03-10T06:28:52.780Z,17.67
2023-03-10T06:31:24.353Z,19.70
2023-03-10T06:33:53.732Z,18.80
2023-03-10T06:36:23.210Z,18.65
2023-03-10T06:38:51.787Z,17.70
2023-03-10T06:41:22.742Z,17.40
2023-03-10T06:43:51.295Z,17.10
2023-03-10T06:46:19.855Z,16.95
2023-03-10T06:48:49.033Z,18.50
2023-03-10T06:51:19.295Z,16.95
2023-03-10T06:53:49.106Z,17.55
2023-03-10T06:56:19.503Z,16.85
2023-03-10T06:58:49.913Z,17.13
2023-03-10T07:01:25.497Z,17.27
2023-03-10T07:03:54.740Z,17.40
2023-03-10T07:06:23.602Z,16.38
2023-03-10T07:08:53.233Z,16.33
2023-03-10T07:11:22.259Z,15.23
2023-03-10T07:13:52.390Z,17.38
2023-03-10T07:16:21.004Z,16.50
2023-03-10T07:18:49.741Z,16.85
2023-03-10T07:21:20.192Z,15.52
2023-03-10T07:23:48.822Z,16.50
2023-03-10T07:26:19.125Z,16.00
2023-03-10T07:28:47.947Z,15.07
2023-03-10T07:31:18.130Z,14.60
2023-03-10T07:33:46.786Z,15.90
2023-03-10T07:36:17.105Z,15.68
2023-03-10T07:38:46.185Z,15.25
2023-03-10T07:41:16.926Z,15.55
2023-03-10T07:43:45.436Z,14.93
2023-03-10T07:46:15.988Z,13.95
2023-03-10T07:48:46.172Z,13.80
2023-03-10T07:51:14.826Z,11.70
2023-03-10T07:53:43.538Z,12.63
2023-03-10T07:56:13.843Z,13.98
2023-03-10T07:58:42.662Z,13.70
2023-03-10T08:01:16.126Z,13.18
2023-03-10T08:03:46.692Z,13.82
2023-03-10T08:06:19.373Z,14.45
2023-03-10T08:08:47.822Z,13.10
2023-03-10T08:11:16.929Z,14.05
2023-03-10T08:13:47.483Z,15.70
2023-03-10T08:16:17.280Z,13.20
2023-03-10T08:18:47.126Z,13.45
2023-03-10T08:21:15.497Z,13.00
2023-03-10T08:23:43.937Z,13.48
2023-03-10T08:26:15.474Z,14.25
2023-03-10T08:28:44.438Z,14.20
2023-03-10T08:31:15.847Z,13.40
2023-03-10T08:33:45.544Z,15.23
2023-03-10T08:36:18.055Z,14.55
2023-03-10T08:38:46.606Z,14.82
2023-03-10T08:41:18.917Z,15.38
2023-03-10T08:43:49.278Z,14.93
2023-03-10T08:46:19.170Z,14.32
2023-03-10T08:48:47.915Z,13.77
2023-03-10T08:51:18.071Z,13.80
2023-03-10T08:53:48.580Z,15.38
2023-03-10T08:56:18.564Z,14.63
2023-03-10T08:58:47.069Z,14.10
2023-03-10T09:01:17.419Z,14.63
2023-03-10T09:03:46.672Z,13.77
2023-03-10T09:06:16.191Z,13.77
2023-03-10T09:08:48.207Z,14.35
2023-03-10T09:11:18.792Z,14.02
2023-03-10T09:13:48.135Z,14.55
2023-03-10T09:16:17.066Z,15.20
2023-03-10T09:18:45.854Z,14.13
2023-03-10T09:21:16.451Z,15.15
2023-03-10T09:23:48.255Z,14.25
2023-03-10T09:26:17.094Z,15.32
2023-03-10T09:28:45.919Z,14.50
2023-03-10T09:31:18.634Z,14.88
2023-03-10T09:33:48.348Z,14.63
2023-03-10T09:36:17.315Z,14.07
2023-03-10T09:38:47.190Z,15.63
2023-03-10T09:41:30.598Z,13.65
2023-03-10T09:44:09.153Z,13.38
2023-03-10T09:46:48.371Z,14.27
2023-03-10T09:49:23.587Z,13.68
2023-03-10T09:51:51.927Z,14.15
2023-03-10T09:54:42.168Z,13.77
2023-03-10T09:57:16.357Z,14.80
2023-03-10T10:02:21.110Z,12.75
2023-03-10T10:04:54.284Z,13.65
2023-03-10T10:07:27.659Z,14.68
2023-03-10T10:10:04.246Z,13.73
2023-03-10T10:12:33.126Z,12.98
2023-03-10T10:15:08.664Z,13.70
2023-03-10T10:17:58.374Z,13.45
2023-03-10T10:20:38.090Z,14.20
2023-03-10T10:23:14.563Z,14.40
2023-03-10T10:25:44.315Z,12.57
2023-03-10T10:28:21.579Z,14.73
2023-03-10T10:30:50.341Z,13.55
2023-03-10T10:33:18.811Z,13.35
2023-03-10T10:36:01.616Z,12.40
2023-03-10T10:38:31.509Z,13.23
2023-03-10T10:41:07.040Z,12.27
2023-03-10T10:43:42.511Z,12.20
2023-03-10T10:46:13.898Z,13.60
2023-03-10T10:48:46.131Z,13.40
2023-03-10T10:51:21.800Z,13.07
2023-03-10T10:53:50.518Z,13.10
2023-03-10T10:56:20.897Z,13.02
2023-03-10T10:59:03.547Z,13.02
2023-03-10T11:01:48.362Z,12.82
2023-03-10T11:04:17.632Z,12.88
2023-03-10T11:06:46.888Z,14.05
2023-03-10T11:09:18.262Z,13.57
2023-03-10T11:11:57.258Z,12.75
2023-03-10T11:14:37.949Z,12.75
2023-03-10T11:17:14.177Z,13.40
2023-03-10T11:19:53.569Z,12.57
2023-03-10T11:22:33.209Z,13.45
2023-03-10T11:25:09.714Z,12.10
2023-03-10T11:27:49.942Z,12.38
2023-03-10T11:32:59.131Z,12.48
2023-03-10T11:35:32.984Z,11.93
2023-03-10T11:38:11.431Z,12.98
2023-03-10T11:40:47.873Z,12.25
2023-03-10T11:43:33.578Z,12.23
2023-03-10T11:46:06.834Z,11.95
2023-03-10T11:48:45.528Z,12.20
2023-03-10T11:51:20.245Z,11.65
2023-03-10T11:53:51.441Z,11.90
2023-03-10T11:56:22.994Z,12.73
2023-03-10T11:58:56.430Z,11.40
2023-03-10T12:01:30.632Z,12.52
2023-03-10T12:04:07.718Z,11.07
2023-03-10T12:06:43.113Z,11.98
2023-03-10T12:09:20.733Z,11.38
2023-03-10T12:11:49.837Z,11.88
2023-03-10T12:14:20.430Z,11.40
2023-03-10T12:16:50.242Z,10.10
2023-03-10T12:19:18.715Z,8.20
2023-03-10T12:22:37.072Z,7.85
2023-03-10T12:25:06.400Z,5.63
2023-03-10T12:28:18.470Z,5.72
2023-03-10T12:30:49.184Z,4.82
2023-03-10T12:33:56.622Z,4.65
2023-03-10T12:36:39.394Z,4.70
2023-03-10T12:39:33.918Z,3.33
2023-03-10T12:42:03.478Z,2.58
2023-03-10T12:44:42.978Z,2.35
2023-03-10T12:47:23.652Z,2.25
2023-03-10T12:49:59.240Z,1.85
2023-03-10T12:52:36.848Z,1.70
2023-03-10T12:55:16.693Z,1.83
2023-03-10T12:57:59.723Z,1.30
2023-03-10T13:00:36.444Z,1.20
2023-03-10T13:03:13.890Z,1.30
2023-03-10T13:05:55.652Z,0.90
2023-03-10T13:08:31.004Z,1.30
2023-03-10T13:11:01.486Z,1.25
2023-03-10T13:13:32.722Z,2.42
2023-03-10T13:16:02.860Z,3.20
2023-03-10T13:18:32.030Z,2.95
2023-03-10T13:21:01.714Z,3.60
2023-03-10T13:23:34.223Z,3.60
2023-03-10T13:26:07.166Z,3.35
2023-03-10T13:28:37.371Z,3.35
2023-03-10T13:31:20.501Z,3.70
2023-03-10T13:33:53.591Z,3.55
2023-03-10T13:36:33.711Z,3.80
2023-03-10T13:39:04.713Z,3.83
2023-03-10T13:41:37.363Z,3.78
2023-03-10T13:44:05.921Z,3.90
2023-03-10T13:46:35.469Z,3.88
2023-03-10T13:49:08.702Z,3.80
2023-03-10T13:51:38.926Z,3.95
2023-03-10T13:54:20.977Z,4.30
2023-03-10T13:56:53.413Z,4.03
2023-03-10T13:59:24.666Z,3.95
2023-03-10T14:01:56.419Z,3.97
2023-03-10T14:04:46.504Z,4.57
2023-03-10T14:07:18.392Z,3.95
2023-03-10T14:09:48.518Z,4.07
2023-03-10T14:12:36.778Z,4.35
2023-03-10T14:15:21.693Z,4.20
2023-03-10T14:17:52.027Z,4.57
2023-03-10T14:20:29.119Z,4.40
2023-03-10T14:22:58.006Z,4.80
2023-03-10T14:25:27.482Z,4.75
2023-03-10T14:28:12.124Z,4.78
2023-03-10T14:30:43.894Z,4.75
2023-03-10T14:33:15.202Z,4.78
2023-03-10T14:35:45.952Z,4.45
2023-03-10T14:38:14.635Z,5.20
2023-03-10T14:40:45.822Z,4.68
2023-03-10T14:43:17.960Z,4.95
2023-03-10T14:45:48.343Z,4.60
2023-03-10T14:48:19.352Z,4.80
2023-03-10T14:50:48.836Z,5.00
2023-03-10T14:53:19.981Z,4.97
2023-03-10T14:55:51.457Z,5.18
2023-03-10T14:58:23.279Z,5.05
2023-03-10T15:00:51.976Z,5.20
2023-03-10T15:03:21.508Z,5.57
2023-03-10T15:05:50.234Z,5.28
2023-03-10T15:08:18.843Z,5.18
2023-03-10T15:10:51.004Z,4.70
2023-03-10T15:13:24.122Z,5.10
2023-03-10T15:15:53.212Z,5.22
2023-03-10T15:18:24.343Z,5.35
2023-03-10T15:20:55.154Z,5.68
2023-03-10T15:23:23.703Z,6.03
2023-03-10T15:25:52.117Z,6.03
2023-03-10T15:28:22.531Z,5.50
2023-03-10T15:30:51.228Z,5.28
2023-03-10T15:33:19.647Z,5.72
2023-03-10T15:35:48.226Z,5.38
2023-03-10T15:38:16.778Z,5.65
2023-03-10T15:40:45.317Z,5.45
2023-03-10T15:43:14.356Z,5.57
2023-03-10T15:45:49.122Z,5.68
2023-03-10T15:48:18.320Z,5.40
2023-03-10T15:50:47.783Z,5.60
2023-03-10T15:53:16.728Z,5.75
2023-03-10T15:55:45.124Z,5.47
2023-03-10T15:58:13.705Z,5.18
2023-03-10T16:00:43.858Z,5.47
2023-03-10T16:03:17.742Z,5.57
2023-03-10T16:05:48.965Z,5.38
2023-03-10T16:08:18.996Z,5.15
2023-03-10T16:10:54.462Z,5.30
2023-03-10T16:13:23.721Z,5.30
2023-03-10T16:15:53.239Z,6.15
2023-03-10T16:18:23.226Z,5.75
2023-03-10T16:20:58.656Z,5.57
2023-03-10T16:23:28.300Z,6.30
2023-03-10T16:26:04.752Z,5.15
2023-03-10T16:28:33.526Z,5.85
2023-03-10T16:31:02.879Z,5.60
2023-03-10T16:33:33.042Z,5.40
2023-03-10T16:36:01.935Z,5.70
2023-03-10T16:38:30.721Z,5.35
2023-03-10T16:40:59.275Z,5.68
2023-03-10T16:43:29.828Z,5.22
2023-03-10T16:46:08.046Z,5.70
2023-03-10T16:48:41.995Z,4.93
2023-03-10T16:51:23.313Z,6.05
2023-03-10T16:53:52.684Z,5.47
2023-03-10T16:56:21.550Z,5.65
2023-03-10T16:58:50.002Z,5.53
2023-03-10T17:01:18.701Z,5.22
2023-03-10T17:03:48.787Z,4.93
2023-03-10T17:06:20.145Z,5.03
2023-03-10T17:08:48.605Z,5.55
2023-03-10T17:11:19.878Z,6.07
2023-03-10T17:13:49.693Z,6.22
2023-03-10T17:16:19.819Z,6.20
2023-03-10T17:18:49.972Z,5.72
2023-03-10T17:21:20.573Z,5.70
2023-03-10T17:23:49.573Z,5.70
2023-03-10T17:26:19.151Z,5.53
2023-03-10T17:28:50.714Z,5.20
2023-03-10T17:31:23.430Z,5.25
2023-03-10T17:33:53.952Z,5.60
2023-03-10T17:36:22.867Z,5.25
2023-03-10T17:38:53.788Z,5.85
2023-03-10T17:41:22.520Z,5.93
2023-03-10T17:43:51.403Z,6.72
2023-03-10T17:46:22.428Z,6.13
2023-03-10T17:48:51.912Z,6.13
2023-03-10T17:51:23.600Z,6.60
2023-03-10T17:53:52.805Z,5.65
2023-03-10T17:56:21.900Z,6.28
2023-03-10T17:58:50.458Z,5.80
2023-03-10T18:01:21.562Z,5.93
2023-03-10T18:03:50.137Z,5.57
2023-03-10T18:06:20.732Z,5.90
2023-03-10T18:08:51.065Z,5.47
2023-03-10T18:11:21.099Z,5.35
2023-03-10T18:13:50.093Z,5.57
2023-03-10T18:16:21.324Z,4.55
2023-03-10T18:18:50.373Z,4.13
2023-03-10T18:21:20.061Z,3.63
2023-03-10T18:23:51.251Z,2.50
2023-03-10T18:26:22.293Z,1.70
2023-03-10T18:28:50.707Z,2.03
2023-03-10T18:31:21.182Z,1.50
2023-03-10T18:33:49.944Z,1.40
2023-03-10T18:36:20.343Z,1.10
2023-03-10T18:38:50.137Z,1.30
2023-03-10T18:41:21.126Z,1.10
2023-03-10T18:43:49.811Z,0.77
2023-03-10T18:46:18.301Z,0.98
2023-03-10T18:48:46.816Z,1.27
2023-03-10T18:51:15.773Z,0.82
2023-03-10T18:53:45.172Z,0.60
2023-03-10T18:56:14.965Z,0.80
2023-03-10T18:58:43.365Z,0.60
2023-03-10T19:01:12.505Z,0.70
2023-03-10T19:03:41.406Z,0.77
2023-03-10T19:06:09.996Z,0.80
2023-03-10T19:08:39.678Z,0.90
2023-03-10T19:11:08.495Z,0.60
2023-03-10T19:13:40.446Z,0.60
2023-03-10T19:16:10.188Z,0.40
2023-03-10T19:18:38.700Z,0.50
2023-03-10T19:21:07.204Z,0.70
2023-03-10T19:23:35.731Z,0.22
2023-03-10T19:26:04.506Z,0.50
2023-03-10T19:28:33.043Z,0.40
2023-03-10T19:31:09.501Z,0.50
2023-03-10T19:33:39.793Z,0.40
2023-03-10T19:36:11.989Z,0.30
2023-03-10T19:38:41.629Z,0.57
2023-03-10T19:41:13.194Z,0.22
2023-03-10T19:43:42.141Z,0.38
2023-03-10T19:46:13.904Z,0.25
2023-03-10T19:48:44.116Z,0.30
2023-03-10T19:51:20.368Z,0.20
2023-03-10T19:53:49.230Z,0.17
2023-03-10T19:56:19.506Z,0.20
2023-03-10T19:58:49.311Z,0.40
2023-03-10T20:01:24.131Z,0.30
2023-03-10T20:03:53.882Z,0.30
2023-03-10T20:06:22.370Z,0.50
2023-03-10T20:08:51.490Z,0.20
2023-03-10T20:11:20.316Z,0.25
2023-03-10T20:13:49.080Z,0.20
2023-03-10T20:16:23.969Z,0.28
2023-03-10T20:18:53.117Z,0.20
2023-03-10T20:21:21.615Z,0.20
2023-03-10T20:23:50.362Z,2.10
2023-03-10T20:26:20.089Z,0.90
2023-03-10T20:28:50.350Z,1.00
2023-03-10T20:31:22.728Z,0.80
2023-03-10T20:33:51.576Z,0.90
2023-03-10T20:36:20.318Z,0.70
2023-03-10T20:38:48.817Z,0.63
2023-03-10T20:41:19.712Z,0.57
2023-03-10T20:43:48.305Z,0.63
2023-03-10T20:46:19.742Z,0.60
2023-03-10T20:48:50.843Z,0.70
2023-03-10T20:51:19.597Z,0.52
2023-03-10T20:53:48.338Z,0.63
2023-03-10T20:56:16.856Z,0.55
2023-03-10T20:58:45.286Z,0.50
2023-03-10T21:01:18.695Z,0.40
2023-03-10T21:03:47.767Z,0.50
2023-03-10T21:06:17.803Z,0.43
2023-03-10T21:08:47.566Z,0.43
2023-03-10T21:11:16.130Z,0.57
2023-03-10T21:13:44.876Z,0.28
2023-03-10T21:16:13.393Z,0.47
2023-03-10T21:18:42.020Z,0.35
2023-03-10T21:21:12.341Z,0.35
2023-03-10T21:23:44.869Z,0.50
2023-03-10T21:26:14.729Z,0.30
2023-03-10T21:28:43.379Z,0.17
2023-03-10T21:31:12.430Z,0.40
2023-03-10T21:33:42.614Z,0.30
2023-03-10T21:36:14.706Z,0.40
2023-03-10T21:38:43.306Z,0.40
2023-03-10T21:41:15.173Z,0.30
2023-03-10T21:43:43.824Z,0.43
2023-03-10T21:46:12.634Z,0.30
2023-03-10T21:48:41.285Z,0.30
2023-03-10T21:51:14.154Z,0.50
2023-03-10T21:53:42.926Z,0.50
2023-03-10T21:56:12.818Z,1.30
2023-03-10T21:58:41.299Z,0.40
2023-03-10T22:01:09.843Z,0.35
2023-03-10T22:03:38.422Z,0.32
2023-03-10T22:06:07.151Z,0.30
2023-03-10T22:08:36.849Z,0.20
2023-03-10T22:11:07.011Z,0.40
2023-03-10T22:13:38.618Z,0.30
2023-03-10T22:16:10.568Z,0.32
2023-03-10T22:18:39.115Z,0.43
2023-03-10T22:21:07.662Z,0.20
2023-03-10T22:23:36.063Z,0.30
2023-03-10T22:26:04.945Z,0.30
2023-03-10T22:28:33.601Z,0.60
2023-03-10T22:31:06.816Z,0.40
2023-03-10T22:33:35.605Z,0.28
2023-03-10T22:36:05.719Z,0.25
2023-03-10T22:38:34.321Z,0.20
2023-03-10T22:41:02.748Z,0.40
2023-03-10T22:43:31.173Z,0.25
2023-03-10T22:45:59.856Z,0.40
2023-03-10T22:48:29.582Z,0.22
2023-03-10T22:50:57.996Z,0.30
2023-03-10T22:53:26.459Z,0.40
2023-03-10T22:55:54.934Z,0.55
2023-03-10T22:58:23.376Z,0.57
2023-03-10T23:00:51.790Z,0.60
2023-03-10T23:03:20.231Z,1.10
2023-03-10T23:05:50.022Z,1.60
2023-03-10T23:08:18.467Z,1.60
2023-03-10T23:10:46.865Z,1.70
2023-03-10T23:13:16.717Z,1.50
2023-03-10T23:15:46.515Z,1.98
2023-03-10T23:18:15.009Z,1.75
2023-03-10T23:20:47.605Z,1.70
2023-03-10T23:23:18.391Z,1.80
2023-03-10T23:25:50.818Z,1.80
2023-03-10T23:28:20.480Z,2.10
2023-03-10T23:30:50.795Z,1.90
2023-03-10T23:33:22.143Z,1.98
2023-03-10T23:35:53.932Z,1.73
2023-03-10T23:38:25.767Z,1.95
2023-03-10T23:40:55.326Z,2.05
2023-03-10T23:43:24.241Z,1.98
2023-03-10T23:45:52.836Z,1.90
2023-03-10T23:48:21.651Z,1.90
2023-03-10T23:50:50.103Z,2.13
2023-03-10T23:53:20.674Z,2.00
2023-03-10T23:55:51.181Z,1.88
2023-03-10T23:58:21.096Z,1.95
